createdAt,value
2022-10-14T00:01:16.589Z,21.73
2022-10-14T00:03:45.028Z,21.72
2022-10-14T00:06:16.784Z,21.74
2022-10-14T00:08:47.829Z,21.70
2022-10-14T00:11:18.733Z,21.68
2022-10-14T00:13:47.002Z,21.65
2022-10-14T00:16:26.878Z,21.68
2022-10-14T00:18:57.270Z,21.62
2022-10-14T00:21:27.436Z,21.63
2022-10-14T00:23:56.280Z,21.62
2022-10-14T00:26:33.440Z,21.57
2022-10-14T00:29:02.270Z,21.38
2022-10-14T00:31:33.330Z,21.44
2022-10-14T00:34:02.147Z,21.51
2022-10-14T00:36:30.200Z,21.54
2022-10-14T00:38:57.691Z,21.57
2022-10-14T00:41:28.694Z,21.52
2022-10-14T00:43:58.995Z,21.36
2022-10-14T00:46:29.864Z,21.33
2022-10-14T00:49:08.051Z,21.24
2022-10-14T00:51:36.864Z,21.30
2022-10-14T00:54:06.964Z,21.28
2022-10-14T00:56:35.722Z,21.21
2022-10-14T00:59:07.341Z,21.26
2022-10-14T01:01:34.791Z,21.16
2022-10-14T01:04:02.516Z,21.16
2022-10-14T01:06:37.384Z,21.08
2022-10-14T01:09:30.465Z,21.16
2022-10-14T01:12:28.712Z,21.11
2022-10-14T01:15:32.323Z,21.01
2022-10-14T01:18:16.723Z,21.06
2022-10-14T01:20:47.459Z,21.07
2022-10-14T01:23:25.568Z,21.12
2022-10-14T01:26:26.021Z,21.14
2022-10-14T01:29:33.283Z,21.04
2022-10-14T01:32:11.336Z,21.02
2022-10-14T01:34:47.575Z,21.05
2022-10-14T01:37:22.486Z,20.98
2022-10-14T01:39:56.083Z,20.94
2022-10-14T01:42:29.811Z,20.93
2022-10-14T01:45:03.581Z,20.90
2022-10-14T01:47:36.551Z,20.79
2022-10-14T01:50:13.581Z,20.78
2022-10-14T01:52:48.092Z,20.78
2022-10-14T01:55:20.701Z,20.66
2022-10-14T01:57:52.145Z,20.61
2022-10-14T02:00:19.890Z,20.63
2022-10-14T02:02:47.469Z,20.63
2022-10-14T02:05:24.603Z,20.57
2022-10-14T02:08:04.773Z,20.54
2022-10-14T02:10:44.631Z,20.52
2022-10-14T02:13:36.200Z,20.55
2022-10-14T02:16:26.499Z,20.45
2022-10-14T02:19:17.277Z,20.33
2022-10-14T02:22:08.823Z,20.32
2022-10-14T02:24:41.516Z,20.33
2022-10-14T02:27:17.192Z,20.32
2022-10-14T02:29:47.815Z,20.31
2022-10-14T02:32:19.629Z,20.37
2022-10-14T02:34:55.177Z,20.33
2022-10-14T02:37:24.345Z,20.31
2022-10-14T02:40:00.207Z,20.35
2022-10-14T02:42:29.634Z,20.34
2022-10-14T02:45:01.943Z,20.32
2022-10-14T02:47:29.863Z,20.35
2022-10-14T02:49:57.826Z,20.35
2022-10-14T02:52:27.278Z,20.40
2022-10-14T02:54:54.884Z,20.45
2022-10-14T02:57:22.937Z,20.40
2022-10-14T02:59:50.733Z,20.45
2022-10-14T03:02:26.267Z,20.44
2022-10-14T03:04:54.035Z,20.40
2022-10-14T03:07:21.619Z,20.45
2022-10-14T03:09:53.615Z,20.42
2022-10-14T03:12:29.704Z,20.37
2022-10-14T03:14:58.695Z,20.23
2022-10-14T03:17:28.011Z,20.09
2022-10-14T03:20:00.390Z,19.99
2022-10-14T03:22:27.974Z,19.83
2022-10-14T03:24:56.742Z,19.77
2022-10-14T03:27:50.978Z,19.60
2022-10-14T03:30:24.320Z,19.59
2022-10-14T03:32:59.447Z,19.56
2022-10-14T03:35:49.957Z,19.63
2022-10-14T03:38:42.807Z,19.63
2022-10-14T03:41:42.005Z,19.67
2022-10-14T03:44:13.650Z,19.60
2022-10-14T03:46:48.377Z,19.65
2022-10-14T03:49:16.259Z,19.66
2022-10-14T03:51:44.136Z,19.62
2022-10-14T03:54:18.998Z,19.62
2022-10-14T03:56:46.585Z,19.62
2022-10-14T03:59:16.878Z,19.59
2022-10-14T04:01:49.384Z,19.63
2022-10-14T04:04:24.583Z,19.41
2022-10-14T04:06:52.559Z,19.26
2022-10-14T04:09:22.516Z,19.21
2022-10-14T04:11:52.493Z,19.26
2022-10-14T04:14:42.862Z,19.36
2022-10-14T04:17:11.628Z,19.30
2022-10-14T04:19:38.988Z,19.34
2022-10-14T04:22:07.151Z,19.33
2022-10-14T04:24:35.022Z,19.36
2022-10-14T04:27:02.856Z,19.32
2022-10-14T04:29:40.472Z,19.29
2022-10-14T04:32:15.711Z,19.33
2022-10-14T04:34:43.657Z,19.34
2022-10-14T04:37:14.832Z,19.39
2022-10-14T04:40:00.345Z,19.35
2022-10-14T04:42:30.315Z,19.34
2022-10-14T04:45:02.801Z,19.35
2022-10-14T04:47:48.336Z,19.19
2022-10-14T04:50:20.491Z,19.23
2022-10-14T04:53:13.097Z,19.24
2022-10-14T04:55:53.428Z,19.24
2022-10-14T04:58:25.972Z,19.21
2022-10-14T05:01:00.455Z,19.30
2022-10-14T05:03:32.935Z,19.35
2022-10-14T05:06:05.008Z,19.32
2022-10-14T05:08:34.545Z,19.29
2022-10-14T05:11:03.012Z,19.33
2022-10-14T05:13:43.448Z,19.30
2022-10-14T05:16:11.926Z,19.30
2022-10-14T05:18:40.132Z,19.34
2022-10-14T05:21:10.742Z,19.32
2022-10-14T05:24:01.006Z,19.37
2022-10-14T05:26:32.295Z,19.26
2022-10-14T05:29:04.586Z,19.18
2022-10-14T05:31:32.872Z,19.22
2022-10-14T05:34:17.684Z,19.15
2022-10-14T05:36:46.375Z,19.05
2022-10-14T05:39:14.819Z,19.04
2022-10-14T05:41:45.298Z,18.94
2022-10-14T05:44:15.546Z,18.92
2022-10-14T05:46:45.587Z,18.92
2022-10-14T05:49:13.672Z,18.91
2022-10-14T05:51:45.399Z,18.98
2022-10-14T05:54:20.232Z,18.88
2022-10-14T05:56:50.910Z,18.88
2022-10-14T05:59:19.920Z,18.91
2022-10-14T06:01:48.673Z,18.82
2022-10-14T06:04:21.489Z,18.88
2022-10-14T06:06:50.756Z,18.92
2022-10-14T06:09:18.632Z,19.00
2022-10-14T06:11:46.996Z,19.06
2022-10-14T06:14:15.871Z,19.05
2022-10-14T06:16:43.787Z,19.12
2022-10-14T06:19:11.501Z,19.22
2022-10-14T06:21:39.131Z,19.30
2022-10-14T06:24:06.913Z,19.36
2022-10-14T06:26:34.522Z,19.42
2022-10-14T06:29:02.694Z,19.38
2022-10-14T06:31:32.456Z,19.36
2022-10-14T06:34:08.019Z,19.44
2022-10-14T06:36:37.744Z,19.40
2022-10-14T06:39:05.843Z,19.23
2022-10-14T06:41:33.949Z,19.13
2022-10-14T06:44:04.704Z,19.20
2022-10-14T06:46:32.351Z,19.22
2022-10-14T06:48:59.817Z,19.29
2022-10-14T06:51:27.411Z,19.31
2022-10-14T06:53:55.049Z,19.29
2022-10-14T06:56:23.167Z,19.40
2022-10-14T06:58:56.902Z,19.62
2022-10-14T07:01:25.780Z,19.70
2022-10-14T07:03:56.763Z,20.00
2022-10-14T07:06:38.176Z,20.17
2022-10-14T07:09:41.164Z,20.38
2022-10-14T07:12:09.577Z,20.49
2022-10-14T07:14:37.039Z,20.67
2022-10-14T07:17:04.798Z,20.78
2022-10-14T07:19:32.373Z,20.74
2022-10-14T07:22:04.020Z,20.70
2022-10-14T07:24:33.603Z,20.63
2022-10-14T07:27:06.171Z,20.67
2022-10-14T07:29:33.473Z,20.67
2022-10-14T07:32:01.529Z,20.63
2022-10-14T07:34:38.906Z,20.79
2022-10-14T07:37:06.553Z,20.88
2022-10-14T07:39:34.688Z,20.97
2022-10-14T07:42:02.464Z,21.12
2022-10-14T07:44:30.402Z,21.26
2022-10-14T07:46:59.538Z,21.32
2022-10-14T07:49:27.406Z,21.32
2022-10-14T07:51:55.486Z,21.35
2022-10-14T07:54:26.260Z,21.41
2022-10-14T07:56:54.117Z,21.46
2022-10-14T07:59:22.364Z,21.58
2022-10-14T08:01:51.579Z,21.62
2022-10-14T08:04:19.862Z,21.71
2022-10-14T08:06:49.035Z,21.72
2022-10-14T08:09:19.167Z,21.68
2022-10-14T08:11:47.675Z,21.86
2022-10-14T08:14:15.535Z,21.97
2022-10-14T08:16:42.795Z,22.13
2022-10-14T08:19:14.485Z,22.20
2022-10-14T08:21:44.195Z,22.22
2022-10-14T08:24:12.040Z,22.33
2022-10-14T08:26:49.168Z,22.41
2022-10-14T08:29:16.857Z,22.50
2022-10-14T08:31:44.913Z,22.53
2022-10-14T08:34:12.524Z,22.50
2022-10-14T08:36:40.023Z,22.50
2022-10-14T08:41:44.896Z,22.65
2022-10-14T08:44:19.806Z,22.68
2022-10-14T08:46:58.826Z,22.62
2022-10-14T08:49:35.801Z,22.75
2022-10-14T08:52:18.579Z,22.79
2022-10-14T08:54:57.319Z,22.70
2022-10-14T08:57:34.129Z,22.94
2022-10-14T09:00:03.028Z,23.02
2022-10-14T09:02:47.780Z,22.92
2022-10-14T09:05:24.245Z,22.95
2022-10-14T09:07:54.888Z,23.06
2022-10-14T09:10:38.049Z,23.09
2022-10-14T09:13:19.037Z,23.15
2022-10-14T09:15:51.038Z,23.40
2022-10-14T09:18:33.963Z,23.53
2022-10-14T09:21:04.642Z,23.67
2022-10-14T09:23:32.156Z,23.72
2022-10-14T09:26:12.402Z,23.72
2022-10-14T09:28:44.129Z,23.83
2022-10-14T09:31:15.318Z,23.83
2022-10-14T09:33:47.439Z,24.06
2022-10-14T09:36:24.991Z,24.13
2022-10-14T09:38:56.580Z,24.24
2022-10-14T09:41:32.955Z,24.21
2022-10-14T09:44:23.244Z,24.45
2022-10-14T09:46:55.799Z,24.44
2022-10-14T09:49:40.799Z,24.57
2022-10-14T09:52:21.502Z,24.65
2022-10-14T09:54:57.388Z,24.72
2022-10-14T09:57:26.873Z,24.85
2022-10-14T10:00:02.371Z,24.82
2022-10-14T10:02:43.954Z,24.96
2022-10-14T10:05:22.944Z,25.09
2022-10-14T10:08:11.722Z,25.10
2022-10-14T10:10:39.278Z,25.11
2022-10-14T10:13:45.503Z,25.20
2022-10-14T10:16:19.390Z,25.14
2022-10-14T10:18:47.005Z,25.19
2022-10-14T10:21:25.238Z,25.12
2022-10-14T10:23:59.353Z,25.11
2022-10-14T10:26:35.078Z,25.17
2022-10-14T10:29:05.551Z,25.09
2022-10-14T10:31:36.286Z,25.04
2022-10-14T10:34:32.594Z,24.93
2022-10-14T10:37:09.195Z,24.91
2022-10-14T10:39:38.845Z,24.83
2022-10-14T10:42:22.405Z,24.88
2022-10-14T10:45:28.569Z,24.93
2022-10-14T10:48:07.020Z,24.94
2022-10-14T10:51:11.650Z,24.97
2022-10-14T10:54:14.859Z,24.93
2022-10-14T10:57:03.434Z,24.72
2022-10-14T11:03:53.190Z,24.70
2022-10-14T11:06:49.062Z,24.72
2022-10-14T11:10:32.247Z,24.79
2022-10-14T11:13:29.349Z,24.76
2022-10-14T11:16:19.775Z,24.86
2022-10-14T11:18:58.816Z,25.04
2022-10-14T11:21:50.659Z,25.05
2022-10-14T11:24:34.502Z,24.98
2022-10-14T11:27:25.408Z,25.11
2022-10-14T11:30:11.707Z,25.10
2022-10-14T11:32:55.749Z,25.09
2022-10-14T11:36:06.057Z,25.24
2022-10-14T11:39:00.580Z,25.30
2022-10-14T11:41:35.989Z,25.21
2022-10-14T11:44:40.969Z,25.29
2022-10-14T11:47:33.201Z,25.31
2022-10-14T11:50:23.589Z,25.11
2022-10-14T11:53:10.740Z,25.26
2022-10-14T11:55:44.446Z,25.26
2022-10-14T11:58:21.614Z,25.25
2022-10-14T12:00:55.570Z,25.29
2022-10-14T12:03:44.141Z,25.26
2022-10-14T12:06:23.316Z,25.37
2022-10-14T12:09:14.043Z,25.37
2022-10-14T12:11:51.852Z,25.49
2022-10-14T12:14:34.481Z,25.53
2022-10-14T12:17:41.039Z,25.60
2022-10-14T12:20:27.672Z,25.61
2022-10-14T12:22:59.424Z,25.64
2022-10-14T12:25:28.696Z,25.67
2022-10-14T12:27:57.106Z,25.62
2022-10-14T12:30:41.781Z,25.59
2022-10-14T12:33:11.898Z,25.53
2022-10-14T12:35:54.945Z,25.38
2022-10-14T12:38:22.288Z,25.25
2022-10-14T12:40:50.036Z,25.23
2022-10-14T12:43:24.409Z,25.19
2022-10-14T12:46:03.367Z,25.11
2022-10-14T12:48:34.334Z,25.10
2022-10-14T12:51:24.717Z,25.09
2022-10-14T12:54:07.793Z,25.07
2022-10-14T12:56:40.099Z,25.14
2022-10-14T12:59:22.542Z,25.12
2022-10-14T13:02:15.650Z,25.22
2022-10-14T13:04:55.338Z,25.24
2022-10-14T13:07:40.040Z,25.21
2022-10-14T13:10:46.808Z,25.40
2022-10-14T13:13:39.181Z,25.23
2022-10-14T13:16:07.872Z,25.32
2022-10-14T13:18:37.280Z,25.22
2022-10-14T13:21:09.686Z,25.25
2022-10-14T13:23:50.495Z,25.27
2022-10-14T13:26:32.719Z,25.27
2022-10-14T13:29:17.955Z,25.32
2022-10-14T13:32:12.272Z,25.27
2022-10-14T13:35:17.239Z,25.38
2022-10-14T13:37:54.611Z,25.39
2022-10-14T13:40:35.406Z,25.47
2022-10-14T13:43:20.491Z,25.49
2022-10-14T13:46:03.952Z,25.32
2022-10-14T13:48:33.270Z,25.33
2022-10-14T13:51:31.891Z,25.30
2022-10-14T13:54:23.989Z,25.35
2022-10-14T13:57:59.938Z,25.35
2022-10-14T14:00:42.696Z,25.29
2022-10-14T14:03:21.305Z,25.26
2022-10-14T14:05:49.940Z,25.23
2022-10-14T14:08:40.969Z,25.31
2022-10-14T14:11:18.506Z,25.33
2022-10-14T14:14:07.185Z,25.37
2022-10-14T14:16:40.523Z,25.28
2022-10-14T14:19:19.322Z,25.31
2022-10-14T14:21:46.715Z,25.36
2022-10-14T14:24:24.548Z,25.31
2022-10-14T14:26:57.656Z,25.36
2022-10-14T14:29:58.405Z,25.40
2022-10-14T14:32:38.756Z,25.26
2022-10-14T14:35:18.100Z,25.15
2022-10-14T14:37:56.118Z,25.19
2022-10-14T14:40:29.953Z,25.13
2022-10-14T14:43:03.521Z,25.05
2022-10-14T14:45:37.449Z,24.95
2022-10-14T14:48:14.238Z,24.97
2022-10-14T14:50:44.839Z,24.92
2022-10-14T14:53:22.178Z,24.87
2022-10-14T14:56:00.738Z,24.96
2022-10-14T14:58:34.053Z,24.95
2022-10-14T15:01:03.267Z,24.95
2022-10-14T15:04:12.873Z,24.90
2022-10-14T15:06:39.531Z,24.76
2022-10-14T15:09:48.633Z,24.73
2022-10-14T15:12:27.398Z,24.76
2022-10-14T15:14:59.603Z,24.79
2022-10-14T15:17:34.675Z,24.78
2022-10-14T15:20:05.154Z,24.72
2022-10-14T15:22:44.859Z,24.75
2022-10-14T15:25:18.414Z,24.74
2022-10-14T15:27:56.391Z,24.77
2022-10-14T15:30:32.150Z,24.62
2022-10-14T15:33:03.052Z,24.66
2022-10-14T15:35:30.816Z,24.81
2022-10-14T15:37:58.595Z,24.83
2022-10-14T15:40:33.168Z,24.78
2022-10-14T15:43:00.410Z,24.87
2022-10-14T15:45:34.691Z,24.97
2022-10-14T15:48:07.395Z,24.98
2022-10-14T15:50:39.934Z,24.85
2022-10-14T15:53:09.480Z,24.97
2022-10-14T15:55:37.941Z,24.96
2022-10-14T15:58:06.631Z,25.01
2022-10-14T16:00:34.510Z,24.94
2022-10-14T16:03:06.171Z,24.81
2022-10-14T16:05:33.897Z,24.89
2022-10-14T16:08:02.048Z,24.87
2022-10-14T16:10:32.052Z,24.92
2022-10-14T16:13:02.417Z,24.95
2022-10-14T16:15:39.339Z,24.89
2022-10-14T16:18:06.648Z,24.71
2022-10-14T16:20:34.314Z,24.77
2022-10-14T16:23:04.700Z,24.81
2022-10-14T16:25:44.277Z,24.85
2022-10-14T16:28:13.400Z,24.69
2022-10-14T16:30:45.245Z,24.71
2022-10-14T16:33:12.494Z,24.60
2022-10-14T16:35:40.024Z,24.64
2022-10-14T16:38:07.585Z,24.64
2022-10-14T16:40:36.829Z,24.67
2022-10-14T16:43:08.072Z,24.64
2022-10-14T16:45:37.769Z,24.55
2022-10-14T16:48:10.685Z,24.52
2022-10-14T16:50:44.766Z,24.42
2022-10-14T16:53:32.915Z,24.39
2022-10-14T16:56:05.205Z,24.31
2022-10-14T16:58:38.375Z,24.20
2022-10-14T17:01:10.233Z,24.13
2022-10-14T17:03:43.835Z,24.05
2022-10-14T17:06:12.860Z,23.97
2022-10-14T17:08:41.572Z,23.95
2022-10-14T17:11:10.173Z,23.95
2022-10-14T17:13:38.779Z,23.92
2022-10-14T17:16:06.992Z,23.94
2022-10-14T17:18:35.966Z,23.97
2022-10-14T17:21:09.438Z,23.87
2022-10-14T17:23:37.755Z,23.86
2022-10-14T17:26:06.026Z,23.77
2022-10-14T17:28:33.596Z,23.77
2022-10-14T17:31:04.308Z,23.71
2022-10-14T17:33:31.871Z,23.71
2022-10-14T17:36:00.688Z,23.65
2022-10-14T17:38:35.507Z,23.66
2022-10-14T17:41:09.782Z,23.64
2022-10-14T17:43:39.447Z,23.58
2022-10-14T17:46:12.676Z,23.59
2022-10-14T17:48:43.758Z,23.54
2022-10-14T17:51:13.162Z,23.54
2022-10-14T17:53:41.151Z,23.57
2022-10-14T17:56:11.899Z,23.56
2022-10-14T17:58:40.545Z,23.54
2022-10-14T18:01:11.030Z,23.53
2022-10-14T18:03:44.275Z,23.49
2022-10-14T18:06:16.646Z,23.51
2022-10-14T18:08:46.117Z,23.51
2022-10-14T18:11:14.240Z,23.50
2022-10-14T18:13:42.430Z,23.49
2022-10-14T18:16:13.772Z,23.48
2022-10-14T18:18:44.137Z,23.48
2022-10-14T18:21:11.627Z,23.47
2022-10-14T18:23:41.309Z,23.48
2022-10-14T18:26:15.578Z,23.46
2022-10-14T18:28:50.013Z,23.43
2022-10-14T18:31:20.266Z,23.43
2022-10-14T18:33:49.504Z,23.43
2022-10-14T18:36:24.007Z,23.41
2022-10-14T18:38:57.829Z,23.41
2022-10-14T18:41:26.640Z,23.37
2022-10-14T18:44:00.853Z,23.31
2022-10-14T18:46:32.185Z,23.33
2022-10-14T18:49:01.587Z,23.34
2022-10-14T18:51:35.275Z,23.33
2022-10-14T18:54:07.150Z,23.32
2022-10-14T18:56:39.017Z,23.32
2022-10-14T18:59:20.713Z,23.32
2022-10-14T19:01:53.614Z,23.33
2022-10-14T19:04:24.462Z,23.32
2022-10-14T19:06:52.220Z,23.32
2022-10-14T19:09:22.459Z,23.32
2022-10-14T19:11:54.094Z,23.32
2022-10-14T19:14:22.576Z,23.23
2022-10-14T19:16:50.300Z,23.19
2022-10-14T19:19:20.056Z,23.23
2022-10-14T19:21:54.739Z,23.25
2022-10-14T19:24:22.924Z,23.26
2022-10-14T19:26:50.782Z,23.25
2022-10-14T19:29:18.685Z,23.21
2022-10-14T19:31:46.839Z,23.20
2022-10-14T19:34:26.927Z,23.19
2022-10-14T19:36:58.080Z,23.17
2022-10-14T19:39:25.517Z,23.16
2022-10-14T19:41:56.249Z,23.16
2022-10-14T19:44:27.689Z,23.12
2022-10-14T19:46:59.519Z,23.12
2022-10-14T19:49:37.713Z,23.11
2022-10-14T19:52:05.821Z,23.10
2022-10-14T19:54:37.438Z,23.08
2022-10-14T19:57:22.545Z,23.05
2022-10-14T19:59:51.267Z,23.05
2022-10-14T20:02:19.943Z,23.07
2022-10-14T20:04:47.447Z,23.06
2022-10-14T20:07:20.109Z,23.05
2022-10-14T20:09:58.105Z,23.02
2022-10-14T20:12:33.538Z,22.96
2022-10-14T20:15:04.423Z,22.93
2022-10-14T20:17:31.960Z,22.90
2022-10-14T20:19:59.967Z,22.92
2022-10-14T20:22:28.017Z,22.87
2022-10-14T20:24:55.901Z,22.85
2022-10-14T20:27:24.603Z,22.86
2022-10-14T20:29:54.607Z,22.85
2022-10-14T20:32:22.513Z,22.83
2022-10-14T20:34:54.813Z,22.85
2022-10-14T20:37:28.051Z,22.82
2022-10-14T20:39:57.949Z,22.81
2022-10-14T20:42:35.032Z,22.79
2022-10-14T20:45:04.848Z,22.73
2022-10-14T20:47:38.220Z,22.70
2022-10-14T20:50:10.687Z,22.60
2022-10-14T20:52:42.267Z,22.56
2022-10-14T20:55:11.109Z,22.51
2022-10-14T20:57:39.920Z,22.47
2022-10-14T21:00:11.274Z,22.47
2022-10-14T21:02:39.833Z,22.53
2022-10-14T21:05:11.545Z,22.55
2022-10-14T21:07:39.784Z,22.64
2022-10-14T21:10:14.816Z,22.65
2022-10-14T21:12:45.333Z,22.70
2022-10-14T21:15:19.011Z,22.73
2022-10-14T21:18:05.358Z,22.73
2022-10-14T21:20:36.860Z,22.66
2022-10-14T21:23:05.806Z,22.66
2022-10-14T21:25:55.922Z,22.63
2022-10-14T21:28:25.764Z,22.53
2022-10-14T21:30:57.386Z,22.48
2022-10-14T21:33:24.722Z,22.47
2022-10-14T21:35:56.404Z,22.49
2022-10-14T21:38:25.691Z,22.45
2022-10-14T21:40:52.990Z,22.42
2022-10-14T21:43:24.690Z,22.42
2022-10-14T21:45:53.834Z,22.36
2022-10-14T21:48:24.090Z,22.34
2022-10-14T21:51:13.274Z,22.39
2022-10-14T21:53:45.576Z,22.40
2022-10-14T21:56:18.968Z,22.41
2022-10-14T21:58:48.798Z,22.36
2022-10-14T22:01:52.982Z,22.26
2022-10-14T22:04:23.488Z,22.25
2022-10-14T22:06:55.873Z,22.21
2022-10-14T22:09:24.218Z,22.11
2022-10-14T22:11:54.121Z,22.16
2022-10-14T22:14:21.859Z,22.18
2022-10-14T22:16:49.961Z,22.19
2022-10-14T22:19:17.952Z,22.12
2022-10-14T22:21:46.640Z,22.10
2022-10-14T22:24:15.514Z,22.08
2022-10-14T22:26:43.327Z,22.07
2022-10-14T22:29:15.738Z,22.09
2022-10-14T22:31:47.706Z,22.03
2022-10-14T22:34:16.245Z,21.97
2022-10-14T22:36:45.586Z,21.93
2022-10-14T22:39:17.493Z,21.92
2022-10-14T22:41:45.269Z,21.91
2022-10-14T22:44:15.182Z,21.82
2022-10-14T22:46:42.933Z,21.84
2022-10-14T22:49:10.555Z,21.84
2022-10-14T22:51:43.371Z,21.83
2022-10-14T22:54:17.027Z,21.84
2022-10-14T22:56:48.489Z,21.82
2022-10-14T22:59:34.506Z,21.84
2022-10-14T23:02:11.872Z,21.82
2022-10-14T23:04:58.217Z,21.83
2022-10-14T23:07:29.783Z,21.82
2022-10-14T23:10:05.423Z,21.69
2022-10-14T23:12:37.478Z,21.67
2022-10-14T23:15:39.794Z,21.70
2022-10-14T23:18:19.855Z,21.58
2022-10-14T23:20:54.644Z,21.49
2022-10-14T23:23:27.625Z,21.49
2022-10-14T23:26:02.050Z,21.44
2022-10-14T23:28:55.285Z,21.38
2022-10-14T23:31:39.168Z,21.39
2022-10-14T23:34:15.528Z,21.26
2022-10-14T23:36:45.400Z,21.32
2022-10-14T23:39:16.167Z,21.31
2022-10-14T23:41:54.239Z,21.31
2022-10-14T23:44:31.807Z,21.31
2022-10-14T23:47:43.638Z,21.29
2022-10-14T23:50:41.001Z,21.27
2022-10-14T23:53:41.875Z,21.30
2022-10-14T23:56:18.742Z,21.19
